| time (UTC) | temp F | wind direction | speed MPH | gust MPH | rain 1hr in | rain 24hr in | rain mn in | humidity % | barometer mb |
| 20260903233003 | 76 | 155 | 6.0 | 16.0 | 0.00 | 0.00 | 0.00 | 20 | 1037.4 |
| 20260903232503 | 76 | 142 | 6.0 | 14.0 | 0.00 | 0.00 | 0.00 | 20 | 1037.3 |
| 20260903232003 | 76 | 147 | 5.0 | 14.0 | 0.00 | 0.00 | 0.00 | 20 | 1037.2 |
| 20260903231721 | 76 | 158 | 5.0 | 14.0 | 0.00 | 0.00 | 0.00 | 20 | 1037.2 |
| 20260903231003 | 76 | 183 | 5.0 | 12.0 | 0.00 | 0.00 | 0.00 | 20 | 1037.3 |
| 20260903230503 | 76 | 161 | 5.0 | 14.0 | 0.00 | 0.00 | 0.00 | 20 | 1037.4 |
| 20260903230003 | 76 | 145 | 6.0 | 14.0 | 0.00 | 0.00 | 0.00 | 21 | 1037.5 |
| 20260903225503 | 76 | 141 | 5.0 | 14.0 | 0.00 | 0.00 | 0.00 | 20 | 1037.4 |
| 20260903225003 | 76 | 151 | 6.0 | 14.0 | 0.00 | 0.00 | 0.00 | 20 | 1037.5 |
| 20260903224503 | 76 | 143 | 6.0 | 13.0 | 0.00 | 0.00 | 0.00 | 20 | 1037.6 |
| 20260903224003 | 76 | 142 | 6.0 | 16.0 | 0.00 | 0.00 | 0.00 | 20 | 1037.4 |
| 20260903223720 | 77 | 148 | 5.0 | 16.0 | 0.00 | 0.00 | 0.00 | 20 | 1037.5 |
| 20260903223003 | 76 | 174 | 4.0 | 9.0 | 0.00 | 0.00 | 0.00 | 21 | 1037.5 |
| 20260903222503 | 76 | 169 | 4.0 | 16.0 | 0.00 | 0.00 | 0.00 | 21 | 1037.5 |
| 20260903222003 | 76 | 156 | 3.0 | 16.0 | 0.00 | 0.00 | 0.00 | 21 | 1037.6 |
| 20260903221503 | 76 | 117 | 4.0 | 11.0 | 0.00 | 0.00 | 0.00 | 22 | 1037.6 |
| 20260903221003 | 75 | 119 | 7.0 | 20.0 | 0.00 | 0.00 | 0.00 | 22 | 1037.8 |
| 20260903220503 | 75 | 134 | 7.0 | 20.0 | 0.00 | 0.00 | 0.00 | 22 | 1037.9 |
| 20260903220003 | 75 | 154 | 6.0 | 14.0 | 0.00 | 0.00 | 0.00 | 22 | 1037.9 |
| 20260903215503 | 74 | 183 | 5.0 | 14.0 | 0.00 | 0.00 | 0.00 | 23 | 1037.8 |
| 20260903215003 | 74 | 195 | 4.0 | 16.0 | 0.00 | 0.00 | 0.00 | 22 | 1037.7 |
| 20260903214503 | 76 | 152 | 4.0 | 16.0 | 0.00 | 0.00 | 0.00 | 21 | 1037.9 |
| 20260903214003 | 76 | 132 | 5.0 | 13.0 | 0.00 | 0.00 | 0.00 | 21 | 1037.8 |
| 20260903213503 | 76 | 150 | 5.0 | 13.0 | 0.00 | 0.00 | 0.00 | 21 | 1037.9 |
| 20260903213003 | 76 | 204 | 4.0 | 11.0 | 0.00 | 0.00 | 0.00 | 23 | 1037.9 |
| 20260903212503 | 75 | 176 | 4.0 | 16.0 | 0.00 | 0.00 | 0.00 | 23 | 1038.0 |
| 20260903212003 | 75 | 164 | 5.0 | 16.0 | 0.00 | 0.00 | 0.00 | 23 | 1038.1 |
| 20260903211717 | 75 | 169 | 5.0 | 15.0 | 0.00 | 0.00 | 0.00 | 23 | 1038.2 |
| 20260903211004 | 74 | 168 | 6.0 | 14.0 | 0.00 | 0.00 | 0.00 | 23 | 1038.3 |
| 20260903210503 | 74 | 171 | 6.0 | 14.0 | 0.00 | 0.00 | 0.00 | 23 | 1038.3 |
| 20260903210003 | 73 | 145 | 7.0 | 21.0 | 0.00 | 0.00 | 0.00 | 24 | 1038.3 |
| 20260903205503 | 73 | 133 | 10.0 | 26.0 | 0.00 | 0.00 | 0.00 | 24 | 1038.3 |
| 20260903205003 | 74 | 153 | 8.0 | 26.0 | 0.00 | 0.00 | 0.00 | 23 | 1038.4 |
| 20260903204503 | 75 | 164 | 6.0 | 14.0 | 0.00 | 0.00 | 0.00 | 23 | 1038.5 |
| 20260903204003 | 75 | 134 | 6.0 | 17.0 | 0.00 | 0.00 | 0.00 | 24 | 1038.4 |
| 20260903203503 | 75 | 148 | 6.0 | 17.0 | 0.00 | 0.00 | 0.00 | 24 | 1038.4 |
| 20260903203004 | 74 | 168 | 5.0 | 16.0 | 0.00 | 0.00 | 0.00 | 25 | 1038.5 |
| 20260903202717 | 74 | 169 | 5.0 | 16.0 | 0.00 | 0.00 | 0.00 | 25 | 1038.5 |
| 20260903202003 | 73 | 206 | 4.0 | 12.0 | 0.00 | 0.00 | 0.00 | 27 | 1038.7 |
| 20260903201503 | 72 | 158 | 6.0 | 17.0 | 0.00 | 0.00 | 0.00 | 27 | 1038.7 |
| 20260903201003 | 72 | 146 | 7.0 | 18.0 | 0.00 | 0.00 | 0.00 | 28 | 1038.7 |
| 20260903200719 | 72 | 165 | 4.0 | 18.0 | 0.00 | 0.00 | 0.00 | 28 | 1038.8 |
| 20260903200217 | 72 | 224 | 3.0 | 14.0 | 0.00 | 0.00 | 0.00 | 29 | 1038.7 |
| 20260903195503 | 72 | 168 | 5.0 | 14.0 | 0.00 | 0.00 | 0.00 | 29 | 1039.0 |
| 20260903195003 | 71 | 188 | 5.0 | 12.0 | 0.00 | 0.00 | 0.00 | 29 | 1038.9 |
| 20260903194721 | 71 | 241 | 5.0 | 12.0 | 0.00 | 0.00 | 0.00 | 29 | 1039.1 |
| 20260903194219 | 71 | 240 | 5.0 | 14.0 | 0.00 | 0.00 | 0.00 | 28 | 1038.9 |
| 20260903193503 | 72 | 139 | 6.0 | 19.0 | 0.00 | 0.00 | 0.00 | 29 | 1039.0 |
| 20260903193003 | 71 | 160 | 6.0 | 19.0 | 0.00 | 0.00 | 0.00 | 30 | 1039.0 |
| 20260903192503 | 71 | 269 | 6.0 | 13.0 | 0.00 | 0.00 | 0.00 | 29 | 1039.2 |
| 20260903192004 | 70 | 285 | 6.0 | 13.0 | 0.00 | 0.00 | 0.00 | 28 | 1039.2 |
| 20260903191503 | 70 | 269 | 6.0 | 13.0 | 0.00 | 0.00 | 0.00 | 28 | 1039.2 |
| 20260903191003 | 70 | 266 | 5.0 | 13.0 | 0.00 | 0.00 | 0.00 | 28 | 1039.2 |
| 20260903190503 | 71 | 268 | 6.0 | 15.0 | 0.00 | 0.00 | 0.00 | 29 | 1039.3 |
| 20260903190004 | 70 | 257 | 7.0 | 15.0 | 0.00 | 0.00 | 0.00 | 30 | 1039.2 |
| 20260903185503 | 69 | 261 | 7.0 | 15.0 | 0.00 | 0.00 | 0.00 | 31 | 1039.1 |
| 20260903185003 | 69 | 273 | 7.0 | 15.0 | 0.00 | 0.00 | 0.00 | 29 | 1039.2 |
| 20260903184503 | 70 | 260 | 5.0 | 12.0 | 0.00 | 0.00 | 0.00 | 29 | 1039.3 |
| 20260903184003 | 70 | 199 | 4.0 | 11.0 | 0.00 | 0.00 | 0.00 | 30 | 1039.3 |
| 20260903183504 | 70 | 157 | 4.0 | 13.0 | 0.00 | 0.00 | 0.00 | 31 | 1039.4 |
| 20260903183003 | 69 | 160 | 5.0 | 13.0 | 0.00 | 0.00 | 0.00 | 32 | 1039.5 |
| 20260903182718 | 69 | 193 | 5.0 | 13.0 | 0.00 | 0.00 | 0.00 | 31 | 1039.5 |
| 20260903182003 | 68 | 237 | 5.0 | 12.0 | 0.00 | 0.00 | 0.00 | 34 | 1039.6 |
| 20260903181503 | 67 | 257 | 7.0 | 16.0 | 0.00 | 0.00 | 0.00 | 35 | 1039.5 |
| 20260903181217 | 67 | 262 | 7.0 | 16.0 | 0.00 | 0.00 | 0.00 | 37 | 1039.5 |
| 20260903180503 | 66 | 252 | 8.0 | 16.0 | 0.00 | 0.00 | 0.00 | 36 | 1039.3 |
| 20260903180004 | 66 | 257 | 10.0 | 17.0 | 0.00 | 0.00 | 0.00 | 37 | 1039.3 |
| 20260903175503 | 65 | 264 | 11.0 | 17.0 | 0.00 | 0.00 | 0.00 | 39 | 1039.4 |
| 20260903175004 | 66 | 262 | 9.0 | 16.0 | 0.00 | 0.00 | 0.00 | 37 | 1039.7 |
| 20260903174503 | 66 | 250 | 7.0 | 16.0 | 0.00 | 0.00 | 0.00 | 37 | 1039.8 |
| 20260903174003 | 66 | 246 | 6.0 | 14.0 | 0.00 | 0.00 | 0.00 | 40 | 1039.9 |
| 20260903173503 | 66 | 264 | 7.0 | 14.0 | 0.00 | 0.00 | 0.00 | 39 | 1040.0 |
| 20260903173003 | 65 | 280 | 7.0 | 18.0 | 0.00 | 0.00 | 0.00 | 39 | 1040.1 |
| 20260903172503 | 66 | 271 | 7.0 | 18.0 | 0.00 | 0.00 | 0.00 | 39 | 1040.1 |
| 20260903172003 | 66 | 255 | 6.0 | 17.0 | 0.00 | 0.00 | 0.00 | 39 | 1040.1 |
| 20260903171503 | 66 | 265 | 6.0 | 14.0 | 0.00 | 0.00 | 0.00 | 39 | 1040.2 |
| 20260903171218 | 66 | 271 | 6.0 | 14.0 | 0.00 | 0.00 | 0.00 | 39 | 1040.3 |
| 20260903170503 | 66 | 239 | 4.0 | 10.0 | 0.00 | 0.00 | 0.00 | 40 | 1040.2 |
| 20260903170003 | 66 | 174 | 5.0 | 13.0 | 0.00 | 0.00 | 0.00 | 41 | 1040.0 |
| 20260903165717 | 66 | 167 | 5.0 | 13.0 | 0.00 | 0.00 | 0.00 | 41 | 1040.1 |
| 20260903165003 | 66 | 141 | 6.0 | 14.0 | 0.00 | 0.00 | 0.00 | 41 | 1040.2 |
| 20260903164503 | 65 | 166 | 5.0 | 14.0 | 0.00 | 0.00 | 0.00 | 41 | 1040.1 |
| 20260903164003 | 64 | 212 | 5.0 | 12.0 | 0.00 | 0.00 | 0.00 | 42 | 1040.0 |
| 20260903163503 | 64 | 244 | 6.0 | 12.0 | 0.00 | 0.00 | 0.00 | 41 | 1040.1 |
| 20260903163003 | 64 | 265 | 6.0 | 13.0 | 0.00 | 0.00 | 0.00 | 40 | 1040.0 |
| 20260903162503 | 65 | 248 | 4.0 | 13.0 | 0.00 | 0.00 | 0.00 | 39 | 1040.0 |
| 20260903162003 | 64 | 178 | 5.0 | 15.0 | 0.00 | 0.00 | 0.00 | 41 | 1040.0 |
| 20260903161503 | 64 | 177 | 5.0 | 15.0 | 0.00 | 0.00 | 0.00 | 42 | 1040.0 |
| 20260903161218 | 64 | 213 | 4.0 | 10.0 | 0.00 | 0.00 | 0.00 | 41 | 1040.1 |
| 20260903160503 | 64 | 223 | 4.0 | 9.0 | 0.00 | 0.00 | 0.00 | 43 | 1039.9 |
| 20260903160003 | 64 | 247 | 4.0 | 9.0 | 0.00 | 0.00 | 0.00 | 42 | 1039.9 |
| 20260903155503 | 64 | 270 | 4.0 | 9.0 | 0.00 | 0.00 | 0.00 | 43 | 1039.9 |
| 20260903155220 | 63 | 277 | 4.0 | 11.0 | 0.00 | 0.00 | 0.00 | 43 | 1039.9 |
| 20260903154503 | 63 | 264 | 4.0 | 11.0 | 0.00 | 0.00 | 0.00 | 43 | 1039.9 |
| 20260903154003 | 62 | 262 | 4.0 | 8.0 | 0.00 | 0.00 | 0.00 | 45 | 1039.8 |
| 20260903153503 | 62 | 259 | 4.0 | 9.0 | 0.00 | 0.00 | 0.00 | 44 | 1039.8 |
| 20260903153003 | 62 | 213 | 4.0 | 11.0 | 0.00 | 0.00 | 0.00 | 45 | 1039.9 |
| 20260903152503 | 62 | 186 | 4.0 | 11.0 | 0.00 | 0.00 | 0.00 | 45 | 1039.8 |
| 20260903152003 | 62 | 194 | 3.0 | 8.0 | 0.00 | 0.00 | 0.00 | 45 | 1039.8 |
| 20260903151503 | 62 | 224 | 3.0 | 8.0 | 0.00 | 0.00 | 0.00 | 44 | 1039.9 |
| 20260903151003 | 61 | 251 | 3.0 | 8.0 | 0.00 | 0.00 | 0.00 | 45 | 1039.9 |
| 20260903150503 | 61 | 258 | 3.0 | 8.0 | 0.00 | 0.00 | 0.00 | 45 | 1039.9 |
| 20260903150003 | 61 | 258 | 3.0 | 8.0 | 0.00 | 0.00 | 0.00 | 44 | 1039.9 |
| 20260903145718 | 61 | 252 | 2.0 | 7.0 | 0.00 | 0.00 | 0.00 | 45 | 1040.0 |
| 20260903145003 | 61 | 264 | 3.0 | 8.0 | 0.00 | 0.00 | 0.00 | 45 | 1039.9 |
| 20260903144503 | 61 | 254 | 3.0 | 7.0 | 0.00 | 0.00 | 0.00 | 44 | 1039.9 |
| 20260903144003 | 61 | 239 | 2.0 | 9.0 | 0.00 | 0.00 | 0.00 | 45 | 1039.9 |
| 20260903143503 | 60 | 233 | 2.0 | 9.0 | 0.00 | 0.00 | 0.00 | 45 | 1039.9 |
| 20260903143004 | 60 | 191 | 2.0 | 7.0 | 0.00 | 0.00 | 0.00 | 45 | 1039.9 |
| 20260903142503 | 60 | 217 | 1.0 | 4.0 | 0.00 | 0.00 | 0.00 | 45 | 1039.9 |
| 20260903142003 | 60 | 322 | 2.0 | 3.0 | 0.00 | 0.00 | 0.00 | 45 | 1039.8 |
| 20260903141503 | 60 | 291 | 2.0 | 7.0 | 0.00 | 0.00 | 0.00 | 46 | 1039.7 |
| 20260903141003 | 60 | 303 | 4.0 | 12.0 | 0.00 | 0.00 | 0.00 | 45 | 1039.7 |
| 20260903140503 | 60 | 313 | 5.0 | 13.0 | 0.00 | 0.00 | 0.00 | 45 | 1039.6 |
| 20260903140221 | 60 | 312 | 5.0 | 13.0 | 0.00 | 0.00 | 0.00 | 45 | 1039.5 |
| 20260903135503 | 59 | 312 | 5.0 | 14.0 | 0.00 | 0.00 | 0.00 | 46 | 1039.6 |
| 20260903135003 | 59 | 310 | 5.0 | 14.0 | 0.00 | 0.00 | 0.00 | 46 | 1039.5 |
| 20260903134503 | 59 | 308 | 4.0 | 12.0 | 0.00 | 0.00 | 0.00 | 47 | 1039.5 |
| 20260903134003 | 58 | 305 | 3.0 | 9.0 | 0.00 | 0.00 | 0.00 | 47 | 1039.4 |
| 20260903133503 | 58 | 304 | 3.0 | 10.0 | 0.00 | 0.00 | 0.00 | 47 | 1039.3 |
| 20260903133003 | 58 | 306 | 4.0 | 10.0 | 0.00 | 0.00 | 0.00 | 47 | 1039.3 |
| 20260903132503 | 58 | 310 | 4.0 | 8.0 | 0.00 | 0.00 | 0.00 | 47 | 1039.2 |
| 20260903132003 | 58 | 307 | 4.0 | 9.0 | 0.00 | 0.00 | 0.00 | 47 | 1039.1 |
| 20260903131503 | 58 | 296 | 4.0 | 9.0 | 0.00 | 0.00 | 0.00 | 47 | 1039.1 |
| 20260903131003 | 58 | 296 | 4.0 | 9.0 | 0.00 | 0.00 | 0.00 | 47 | 1039.1 |
| 20260903130503 | 58 | 298 | 4.0 | 10.0 | 0.00 | 0.00 | 0.00 | 47 | 1039.0 |
| 20260903130003 | 58 | 306 | 3.0 | 10.0 | 0.00 | 0.00 | 0.00 | 47 | 1039.1 |
| 20260903125503 | 58 | 309 | 3.0 | 10.0 | 0.00 | 0.00 | 0.00 | 47 | 1039.0 |
| 20260903125003 | 58 | 298 | 3.0 | 7.0 | 0.00 | 0.00 | 0.00 | 47 | 1038.9 |
| 20260903124503 | 58 | 302 | 3.0 | 8.0 | 0.00 | 0.00 | 0.00 | 47 | 1038.9 |
| 20260903124003 | 58 | 310 | 4.0 | 8.0 | 0.00 | 0.00 | 0.00 | 47 | 1038.8 |
| 20260903123504 | 58 | 312 | 4.0 | 10.0 | 0.00 | 0.00 | 0.00 | 46 | 1038.8 |
| 20260903123003 | 58 | 311 | 4.0 | 10.0 | 0.00 | 0.00 | 0.00 | 47 | 1038.7 |
| 20260903122503 | 58 | 311 | 4.0 | 10.0 | 0.00 | 0.00 | 0.00 | 46 | 1038.7 |
| 20260903122003 | 59 | 304 | 4.0 | 10.0 | 0.00 | 0.00 | 0.00 | 46 | 1038.5 |
| 20260903121718 | 59 | 306 | 5.0 | 11.0 | 0.00 | 0.00 | 0.00 | 46 | 1038.6 |
| 20260903121004 | 59 | 317 | 6.0 | 15.0 | 0.00 | 0.00 | 0.00 | 46 | 1038.6 |
| 20260903120503 | 59 | 314 | 7.0 | 15.0 | 0.00 | 0.00 | 0.00 | 45 | 1038.5 |
| 20260903120004 | 59 | 308 | 6.0 | 14.0 | 0.00 | 0.00 | 0.00 | 45 | 1038.4 |
| 20260903115720 | 59 | 307 | 7.0 | 14.0 | 0.00 | 0.00 | 0.00 | 45 | 1038.5 |
| 20260903115218 | 59 | 309 | 7.0 | 14.0 | 0.00 | 0.00 | 0.00 | 45 | 1038.3 |
| 20260903114721 | 59 | 310 | 7.0 | 16.0 | 0.00 | 0.00 | 0.00 | 45 | 1038.3 |
| 20260903114003 | 59 | 309 | 8.0 | 16.0 | 0.00 | 0.00 | 0.00 | 45 | 1038.3 |
| 20260903113503 | 59 | 312 | 8.0 | 16.0 | 0.00 | 0.00 | 0.00 | 45 | 1038.2 |
| 20260903113003 | 59 | 309 | 7.0 | 16.0 | 0.00 | 0.00 | 0.00 | 45 | 1038.2 |
| 20260903112503 | 59 | 308 | 7.0 | 16.0 | 0.00 | 0.00 | 0.00 | 45 | 1038.3 |
| 20260903112003 | 59 | 308 | 8.0 | 16.0 | 0.00 | 0.00 | 0.00 | 45 | 1038.3 |
| 20260903111503 | 59 | 308 | 8.0 | 13.0 | 0.00 | 0.00 | 0.00 | 45 | 1038.4 |
| 20260903111003 | 59 | 307 | 7.0 | 14.0 | 0.00 | 0.00 | 0.00 | 45 | 1038.3 |
| 20260903110503 | 59 | 305 | 7.0 | 14.0 | 0.00 | 0.00 | 0.00 | 45 | 1038.3 |
| 20260903110003 | 59 | 309 | 6.0 | 12.0 | 0.00 | 0.00 | 0.00 | 45 | 1038.3 |
| 20260903105503 | 59 | 313 | 7.0 | 13.0 | 0.00 | 0.00 | 0.00 | 45 | 1038.3 |
| 20260903105003 | 59 | 312 | 6.0 | 13.0 | 0.00 | 0.00 | 0.00 | 45 | 1038.4 |
| 20260903104503 | 59 | 311 | 6.0 | 12.0 | 0.00 | 0.00 | 0.00 | 45 | 1038.4 |
| 20260903104003 | 59 | 313 | 5.0 | 12.0 | 0.00 | 0.00 | 0.00 | 45 | 1038.4 |
| 20260903103503 | 59 | 307 | 3.0 | 9.0 | 0.00 | 0.00 | 0.00 | 45 | 1038.4 |
| 20260903103220 | 59 | 306 | 4.0 | 10.0 | 0.00 | 0.00 | 0.00 | 45 | 1038.5 |
| 20260903102503 | 60 | 304 | 6.0 | 14.0 | 0.00 | 0.00 | 0.00 | 44 | 1038.5 |
| 20260903102003 | 59 | 310 | 7.0 | 14.0 | 0.00 | 0.00 | 0.00 | 45 | 1038.5 |
| 20260903101503 | 58 | 313 | 5.0 | 14.0 | 0.00 | 0.00 | 0.00 | 47 | 1038.5 |
| 20260903101003 | 56 | 315 | 3.0 | 9.0 | 0.00 | 0.00 | 0.00 | 50 | 1038.4 |
| 20260903100503 | 55 | 317 | 2.0 | 9.0 | 0.00 | 0.00 | 0.00 | 51 | 1038.4 |
| 20260903100004 | 55 | 314 | 2.0 | 7.0 | 0.00 | 0.00 | 0.00 | 52 | 1038.5 |
| 20260903095721 | 54 | 322 | 1.0 | 4.0 | 0.00 | 0.00 | 0.00 | 52 | 1038.5 |
| 20260903095004 | 55 | 321 | 1.0 | 4.0 | 0.00 | 0.00 | 0.00 | 51 | 1038.7 |
| 20260903094503 | 55 | 321 | 1.0 | 3.0 | 0.00 | 0.00 | 0.00 | 51 | 1038.7 |
| 20260903094220 | 55 | 317 | 1.0 | 4.0 | 0.00 | 0.00 | 0.00 | 51 | 1038.7 |
| 20260903093503 | 55 | 328 | 1.0 | 4.0 | 0.00 | 0.00 | 0.00 | 50 | 1038.6 |
| 20260903093003 | 56 | 357 | 1.0 | 3.0 | 0.00 | 0.00 | 0.00 | 49 | 1038.6 |
| 20260903092503 | 57 | 337 | 2.0 | 5.0 | 0.00 | 0.00 | 0.00 | 48 | 1038.5 |
| 20260903092003 | 58 | 321 | 2.0 | 7.0 | 0.00 | 0.00 | 0.00 | 47 | 1038.6 |
| 20260903091503 | 58 | 313 | 2.0 | 7.0 | 0.00 | 0.00 | 0.00 | 47 | 1038.6 |
| 20260903091218 | 57 | 314 | 2.0 | 8.0 | 0.00 | 0.00 | 0.00 | 47 | 1038.7 |
| 20260903090721 | 57 | 324 | 2.0 | 8.0 | 0.00 | 0.00 | 0.00 | 47 | 1038.6 |
| 20260903090003 | 57 | 322 | 3.0 | 6.0 | 0.00 | 0.00 | 0.00 | 47 | 1038.7 |
| 20260903085503 | 58 | 325 | 3.0 | 6.0 | 0.00 | 0.00 | 0.00 | 46 | 1038.7 |
| 20260903085003 | 58 | 322 | 4.0 | 9.0 | 0.00 | 0.00 | 0.00 | 46 | 1038.7 |
| 20260903084718 | 58 | 320 | 3.0 | 9.0 | 0.00 | 0.00 | 0.00 | 46 | 1038.7 |
| 20260903084003 | 58 | 322 | 4.0 | 9.0 | 0.00 | 0.00 | 0.00 | 47 | 1038.7 |
| 20260903083503 | 58 | 320 | 4.0 | 9.0 | 0.00 | 0.00 | 0.00 | 46 | 1038.9 |
| 20260903083003 | 58 | 320 | 5.0 | 10.0 | 0.00 | 0.00 | 0.00 | 46 | 1038.9 |
| 20260903082503 | 58 | 324 | 5.0 | 10.0 | 0.00 | 0.00 | 0.00 | 47 | 1038.8 |
| 20260903082003 | 58 | 324 | 4.0 | 9.0 | 0.00 | 0.00 | 0.00 | 47 | 1038.9 |
| 20260903081503 | 58 | 323 | 4.0 | 9.0 | 0.00 | 0.00 | 0.00 | 47 | 1039.0 |
| 20260903081003 | 58 | 325 | 4.0 | 8.0 | 0.00 | 0.00 | 0.00 | 48 | 1039.0 |
| 20260903080503 | 58 | 327 | 3.0 | 6.0 | 0.00 | 0.00 | 0.00 | 48 | 1039.1 |
| 20260903080004 | 58 | 327 | 3.0 | 8.0 | 0.00 | 0.00 | 0.00 | 48 | 1039.1 |
| 20260903075503 | 58 | 327 | 3.0 | 8.0 | 0.00 | 0.00 | 0.00 | 48 | 1039.1 |
| 20260903075220 | 57 | 330 | 3.0 | 8.0 | 0.00 | 0.00 | 0.00 | 49 | 1039.1 |
| 20260903074503 | 57 | 328 | 3.0 | 8.0 | 0.00 | 0.00 | 0.00 | 50 | 1039.1 |
| 20260903074221 | 56 | 321 | 3.0 | 7.0 | 0.00 | 0.00 | 0.00 | 51 | 1039.1 |
| 20260903073503 | 55 | 318 | 3.0 | 5.0 | 0.00 | 0.00 | 0.00 | 53 | 1039.1 |
| 20260903073217 | 54 | 322 | 2.0 | 5.0 | 0.00 | 0.00 | 0.00 | 54 | 1039.1 |
| 20260903072503 | 54 | 325 | 1.0 | 2.0 | 0.00 | 0.00 | 0.00 | 55 | 1039.1 |
| 20260903072003 | 55 | 325 | 0.0 | 3.0 | 0.00 | 0.00 | 0.00 | 54 | 1039.2 |
| 20260903071503 | 55 | 324 | 1.0 | 4.0 | 0.00 | 0.00 | 0.00 | 54 | 1039.3 |
| 20260903071003 | 55 | 328 | 1.0 | 4.0 | 0.00 | 0.00 | 0.00 | 53 | 1039.3 |
| 20260903070503 | 55 | 341 | 1.0 | 4.0 | 0.00 | 0.00 | 0.00 | 53 | 1039.2 |
| 20260903070003 | 56 | 57 | 0.0 | 2.0 | 0.00 | 0.00 | 0.00 | 52 | 1039.1 |
| 20260903065503 | 56 | 64 | 1.0 | 3.0 | 0.00 | 0.00 | 0.00 | 51 | 1039.2 |
| 20260903065003 | 57 | 63 | 1.0 | 3.0 | 0.00 | 0.00 | 0.00 | 51 | 1039.1 |
| 20260903064503 | 57 | 54 | 1.0 | 3.0 | 0.00 | 0.00 | 0.00 | 50 | 1039.0 |
| 20260903064003 | 58 | 21 | 1.0 | 3.0 | 0.00 | 0.00 | 0.00 | 49 | 1039.1 |
| 20260903063720 | 58 | 20 | 1.0 | 3.0 | 0.00 | 0.00 | 0.00 | 49 | 1038.9 |
| 20260903063003 | 58 | 16 | 1.0 | 3.0 | 0.00 | 0.00 | 0.00 | 48 | 1039.0 |
| 20260903062721 | 58 | 351 | 1.0 | 5.0 | 0.00 | 0.00 | 0.00 | 48 | 1039.1 |
| 20260903062003 | 59 | 317 | 2.0 | 8.0 | 0.00 | 0.00 | 0.00 | 47 | 1039.1 |
| 20260903061503 | 58 | 327 | 3.0 | 8.0 | 0.00 | 0.00 | 0.00 | 47 | 1038.9 |
| 20260903061003 | 58 | 1 | 2.0 | 7.0 | 0.00 | 0.00 | 0.00 | 47 | 1038.8 |
| 20260903060717 | 58 | 37 | 2.0 | 7.0 | 0.00 | 0.00 | 0.00 | 48 | 1038.8 |
| 20260903060003 | 58 | 36 | 1.0 | 5.0 | 0.00 | 0.00 | 0.00 | 49 | 1038.8 |
| 20260903055503 | 57 | 62 | 1.0 | 3.0 | 0.00 | 0.00 | 0.00 | 49 | 1038.8 |
| 20260903055003 | 58 | 333 | 2.0 | 3.0 | 0.00 | 0.00 | 0.00 | 49 | 1038.8 |
| 20260903054503 | 58 | 351 | 1.0 | 4.0 | 0.00 | 0.00 | 0.00 | 48 | 1038.8 |
| 20260903054003 | 59 | 21 | 1.0 | 4.0 | 0.00 | 0.00 | 0.00 | 47 | 1038.7 |
| 20260903053721 | 59 | 30 | 1.0 | 3.0 | 0.00 | 0.00 | 0.00 | 46 | 1038.9 |
| 20260903053218 | 60 | 68 | 1.0 | 5.0 | 0.00 | 0.00 | 0.00 | 46 | 1038.9 |
| 20260903052503 | 60 | 335 | 2.0 | 5.0 | 0.00 | 0.00 | 0.00 | 45 | 1038.9 |
| 20260903052003 | 61 | 266 | 2.0 | 7.0 | 0.00 | 0.00 | 0.00 | 45 | 1038.9 |
| 20260903051503 | 61 | 255 | 3.0 | 8.0 | 0.00 | 0.00 | 0.00 | 44 | 1038.9 |
| 20260903051003 | 61 | 279 | 3.0 | 8.0 | 0.00 | 0.00 | 0.00 | 44 | 1038.8 |
| 20260903050503 | 62 | 232 | 3.0 | 10.0 | 0.00 | 0.00 | 0.00 | 43 | 1038.9 |
| 20260903050003 | 62 | 205 | 4.0 | 10.0 | 0.00 | 0.00 | 0.00 | 43 | 1038.9 |
| 20260903045503 | 62 | 202 | 3.0 | 8.0 | 0.00 | 0.00 | 0.00 | 43 | 1038.8 |
| 20260903045003 | 62 | 239 | 2.0 | 6.0 | 0.00 | 0.00 | 0.00 | 43 | 1038.9 |
| 20260903044720 | 62 | 232 | 2.0 | 6.0 | 0.00 | 0.00 | 0.00 | 42 | 1038.9 |
| 20260903044003 | 62 | 250 | 3.0 | 11.0 | 0.00 | 0.00 | 0.00 | 42 | 1039.0 |
| 20260903043503 | 63 | 280 | 4.0 | 11.0 | 0.00 | 0.00 | 0.00 | 42 | 1039.0 |
| 20260903043003 | 63 | 301 | 6.0 | 15.0 | 0.00 | 0.00 | 0.00 | 41 | 1039.0 |
| 20260903042503 | 63 | 305 | 8.0 | 15.0 | 0.00 | 0.00 | 0.00 | 41 | 1039.0 |
| 20260903042003 | 63 | 292 | 6.0 | 15.0 | 0.00 | 0.00 | 0.00 | 41 | 1039.1 |
| 20260903041503 | 63 | 267 | 3.0 | 9.0 | 0.00 | 0.00 | 0.00 | 42 | 1039.3 |
| 20260903041003 | 63 | 267 | 3.0 | 9.0 | 0.00 | 0.00 | 0.00 | 41 | 1039.2 |
| 20260903040719 | 62 | 271 | 4.0 | 9.0 | 0.00 | 0.00 | 0.00 | 42 | 1039.3 |
| 20260903040004 | 62 | 292 | 3.0 | 9.0 | 0.00 | 0.00 | 0.00 | 42 | 1039.3 |
| 20260903035503 | 62 | 291 | 3.0 | 11.0 | 0.00 | 0.00 | 0.00 | 43 | 1039.3 |
| 20260903035003 | 62 | 289 | 3.0 | 11.0 | 0.00 | 0.00 | 0.00 | 44 | 1039.3 |
| 20260903034503 | 61 | 299 | 4.0 | 9.0 | 0.00 | 0.00 | 0.00 | 45 | 1039.1 |
| 20260903034003 | 61 | 304 | 5.0 | 13.0 | 0.00 | 0.00 | 0.00 | 45 | 1039.1 |
| 20260903033503 | 61 | 302 | 5.0 | 13.0 | 0.00 | 0.00 | 0.00 | 46 | 1039.0 |
| 20260903033220 | 61 | 304 | 5.0 | 13.0 | 0.00 | 0.00 | 0.00 | 46 | 1038.8 |
| 20260903032717 | 61 | 305 | 6.0 | 13.0 | 0.00 | 0.00 | 0.00 | 46 | 1038.6 |
| 20260903032003 | 61 | 301 | 7.0 | 14.0 | 0.00 | 0.00 | 0.00 | 46 | 1038.7 |
| 20260903031503 | 61 | 300 | 8.0 | 14.0 | 0.00 | 0.00 | 0.00 | 46 | 1038.7 |
| 20260903031003 | 61 | 301 | 8.0 | 14.0 | 0.00 | 0.00 | 0.00 | 46 | 1038.7 |
| 20260903030503 | 62 | 301 | 8.0 | 14.0 | 0.00 | 0.00 | 0.00 | 45 | 1038.7 |
| 20260903030003 | 62 | 309 | 8.0 | 16.0 | 0.00 | 0.00 | 0.00 | 43 | 1038.6 |
| 20260903025503 | 63 | 315 | 8.0 | 16.0 | 0.00 | 0.00 | 0.00 | 42 | 1038.6 |
| 20260903025003 | 64 | 314 | 9.0 | 16.0 | 0.00 | 0.00 | 0.00 | 41 | 1038.5 |
| 20260903024503 | 64 | 311 | 10.0 | 18.0 | 0.00 | 0.00 | 0.00 | 40 | 1038.6 |
| 20260903024003 | 64 | 312 | 10.0 | 18.0 | 0.00 | 0.00 | 0.00 | 39 | 1038.5 |
| 20260903023717 | 65 | 315 | 10.0 | 17.0 | 0.00 | 0.00 | 0.00 | 39 | 1038.5 |
| 20260903023220 | 65 | 319 | 9.0 | 16.0 | 0.00 | 0.00 | 0.00 | 39 | 1038.5 |
| 20260903022504 | 65 | 312 | 9.0 | 22.0 | 0.00 | 0.00 | 0.00 | 38 | 1038.5 |
| 20260903022003 | 66 | 314 | 6.0 | 22.0 | 0.00 | 0.00 | 0.00 | 38 | 1038.4 |
| 20260903021503 | 66 | 303 | 3.0 | 13.0 | 0.00 | 0.00 | 0.00 | 38 | 1038.4 |
| 20260903021003 | 66 | 284 | 3.0 | 15.0 | 0.00 | 0.00 | 0.00 | 37 | 1038.3 |
| 20260903020503 | 67 | 285 | 5.0 | 15.0 | 0.00 | 0.00 | 0.00 | 36 | 1038.3 |
| 20260903020003 | 67 | 227 | 4.0 | 12.0 | 0.00 | 0.00 | 0.00 | 34 | 1038.1 |
| 20260903015721 | 67 | 177 | 3.0 | 9.0 | 0.00 | 0.00 | 0.00 | 32 | 1038.2 |
| 20260903015219 | 68 | 159 | 4.0 | 12.0 | 0.00 | 0.00 | 0.00 | 29 | 1038.1 |
| 20260903014503 | 68 | 156 | 5.0 | 12.0 | 0.00 | 0.00 | 0.00 | 29 | 1038.1 |
| 20260903014003 | 68 | 155 | 3.0 | 9.0 | 0.00 | 0.00 | 0.00 | 29 | 1038.0 |
| 20260903013503 | 68 | 168 | 4.0 | 10.0 | 0.00 | 0.00 | 0.00 | 28 | 1038.0 |
| 20260903013003 | 68 | 167 | 3.0 | 10.0 | 0.00 | 0.00 | 0.00 | 28 | 1038.0 |
| 20260903012503 | 68 | 150 | 2.0 | 8.0 | 0.00 | 0.00 | 0.00 | 28 | 1038.0 |
| 20260903012003 | 68 | 160 | 2.0 | 6.0 | 0.00 | 0.00 | 0.00 | 27 | 1038.0 |
| 20260903011503 | 69 | 148 | 3.0 | 9.0 | 0.00 | 0.00 | 0.00 | 27 | 1037.9 |
| 20260903011218 | 69 | 148 | 3.0 | 9.0 | 0.00 | 0.00 | 0.00 | 27 | 1037.9 |
| 20260903010721 | 69 | 171 | 4.0 | 10.0 | 0.00 | 0.00 | 0.00 | 27 | 1037.9 |
| 20260903010219 | 69 | 154 | 5.0 | 10.0 | 0.00 | 0.00 | 0.00 | 27 | 1037.9 |
| 20260903005503 | 69 | 148 | 5.0 | 11.0 | 0.00 | 0.00 | 0.00 | 26 | 1037.9 |
| 20260903005003 | 70 | 161 | 5.0 | 14.0 | 0.00 | 0.00 | 0.00 | 26 | 1037.9 |
| 20260903004503 | 70 | 159 | 5.0 | 14.0 | 0.00 | 0.00 | 0.00 | 26 | 1038.0 |
| 20260903004003 | 70 | 155 | 5.0 | 10.0 | 0.00 | 0.00 | 0.00 | 25 | 1037.9 |
| 20260903003503 | 71 | 161 | 5.0 | 11.0 | 0.00 | 0.00 | 0.00 | 24 | 1037.9 |
| 20260903003003 | 72 | 165 | 5.0 | 14.0 | 0.00 | 0.00 | 0.00 | 24 | 1037.8 |
| 20260903002504 | 72 | 162 | 5.0 | 14.0 | 0.00 | 0.00 | 0.00 | 24 | 1037.9 |
| 20260903002003 | 73 | 162 | 5.0 | 14.0 | 0.00 | 0.00 | 0.00 | 23 | 1037.9 |
| 20260903001503 | 73 | 174 | 5.0 | 13.0 | 0.00 | 0.00 | 0.00 | 23 | 1037.9 |
| 20260903001219 | 73 | 163 | 5.0 | 13.0 | 0.00 | 0.00 | 0.00 | 22 | 1037.8 |
| 20260903000503 | 75 | 183 | 5.0 | 10.0 | 0.00 | 0.00 | 0.00 | 22 | 1037.7 |
| 20260903000003 | 75 | 207 | 4.0 | 10.0 | 0.00 | 0.00 | 0.00 | 23 | 1037.7 |
| 20260902235503 | 75 | 184 | 4.0 | 13.0 | 0.00 | 0.00 | 0.00 | 23 | 1037.7 |
| 20260902235003 | 74 | 174 | 4.0 | 13.0 | 0.00 | 0.00 | 0.00 | 24 | 1037.6 |
| 20260902234503 | 74 | 134 | 5.0 | 13.0 | 0.00 | 0.00 | 0.00 | 24 | 1037.7 |
| 20260902234003 | 74 | 130 | 5.0 | 13.0 | 0.00 | 0.00 | 0.00 | 23 | 1037.7 |
| 20260902233503 | 75 | 152 | 4.0 | 11.0 | 0.00 | 0.00 | 0.00 | 23 | 1037.6 |